sensor_id;sensor_type;location;lat;lon;timestamp;temperature;humidity
65766;SHT31;52915;53.718;19.946;2023-04-15T00:03:57;11.06;73.36
65766;SHT31;52915;53.718;19.946;2023-04-15T00:14:58;11.06;73.51
65766;SHT31;52915;53.718;19.946;2023-04-15T00:20:02;11.04;73.47
65766;SHT31;52915;53.718;19.946;2023-04-15T00:25:08;11.06;73.45
65766;SHT31;52915;53.718;19.946;2023-04-15T00:30:12;11.03;73.58
65766;SHT31;52915;53.718;19.946;2023-04-15T00:35:16;11.02;73.64
65766;SHT31;52915;53.718;19.946;2023-04-15T00:40:22;11.02;73.56
65766;SHT31;52915;53.718;19.946;2023-04-15T00:52:31;11.02;73.70
65766;SHT31;52915;53.718;19.946;2023-04-15T00:57:35;10.99;73.71
65766;SHT31;52915;53.718;19.946;2023-04-15T01:02:40;10.99;73.79
65766;SHT31;52915;53.718;19.946;2023-04-15T01:21:41;10.93;74.00
65766;SHT31;52915;53.718;19.946;2023-04-15T01:26:45;10.89;74.04
65766;SHT31;52915;53.718;19.946;2023-04-15T01:37:33;10.86;74.20
65766;SHT31;52915;53.718;19.946;2023-04-15T01:42:46;10.85;74.18
65766;SHT31;52915;53.718;19.946;2023-04-15T01:47:50;10.86;74.14
65766;SHT31;52915;53.718;19.946;2023-04-15T01:53:00;10.85;74.23
65766;SHT31;52915;53.718;19.946;2023-04-15T01:58:04;10.84;74.25
65766;SHT31;52915;53.718;19.946;2023-04-15T02:03:08;10.84;74.36
65766;SHT31;52915;53.718;19.946;2023-04-15T02:08:12;10.82;74.44
65766;SHT31;52915;53.718;19.946;2023-04-15T02:13:15;10.80;74.51
65766;SHT31;52915;53.718;19.946;2023-04-15T02:18:19;10.79;74.60
65766;SHT31;52915;53.718;19.946;2023-04-15T02:28:55;10.77;74.78
65766;SHT31;52915;53.718;19.946;2023-04-15T02:48:42;10.78;74.86
65766;SHT31;52915;53.718;19.946;2023-04-15T02:54:04;10.77;74.89
65766;SHT31;52915;53.718;19.946;2023-04-15T02:59:08;10.76;74.97
65766;SHT31;52915;53.718;19.946;2023-04-15T03:11:35;10.74;75.03
65766;SHT31;52915;53.718;19.946;2023-04-15T03:16:42;10.75;74.99
65766;SHT31;52915;53.718;19.946;2023-04-15T03:21:46;10.76;74.89
65766;SHT31;52915;53.718;19.946;2023-04-15T03:32:20;10.77;74.83
65766;SHT31;52915;53.718;19.946;2023-04-15T03:37:29;10.78;74.71
65766;SHT31;52915;53.718;19.946;2023-04-15T03:42:33;10.78;74.64
65766;SHT31;52915;53.718;19.946;2023-04-15T03:47:43;10.78;74.51
65766;SHT31;52915;53.718;19.946;2023-04-15T03:52:46;10.78;74.44
65766;SHT31;52915;53.718;19.946;2023-04-15T03:57:53;10.80;74.39
65766;SHT31;52915;53.718;19.946;2023-04-15T04:02:56;10.80;74.41
65766;SHT31;52915;53.718;19.946;2023-04-15T04:08:09;10.79;74.53
65766;SHT31;52915;53.718;19.946;2023-04-15T04:13:15;10.79;74.44
65766;SHT31;52915;53.718;19.946;2023-04-15T04:18:20;10.79;74.49
65766;SHT31;52915;53.718;19.946;2023-04-15T04:23:24;10.79;74.50
65766;SHT31;52915;53.718;19.946;2023-04-15T04:28:31;10.81;74.49
65766;SHT31;52915;53.718;19.946;2023-04-15T04:33:35;10.83;74.35
65766;SHT31;52915;53.718;19.946;2023-04-15T04:38:45;10.86;74.33
65766;SHT31;52915;53.718;19.946;2023-04-15T04:43:49;10.92;74.07
65766;SHT31;52915;53.718;19.946;2023-04-15T04:48:53;10.96;73.92
65766;SHT31;52915;53.718;19.946;2023-04-15T04:53:56;11.01;73.90
65766;SHT31;52915;53.718;19.946;2023-04-15T04:59:07;11.02;73.88
65766;SHT31;52915;53.718;19.946;2023-04-15T05:04:11;11.05;73.82
65766;SHT31;52915;53.718;19.946;2023-04-15T05:09:21;11.04;73.85
65766;SHT31;52915;53.718;19.946;2023-04-15T05:14:24;11.07;73.81
65766;SHT31;52915;53.718;19.946;2023-04-15T05:19:28;11.13;73.80
65766;SHT31;52915;53.718;19.946;2023-04-15T05:24:32;11.16;73.68
65766;SHT31;52915;53.718;19.946;2023-04-15T05:35:05;11.22;73.86
65766;SHT31;52915;53.718;19.946;2023-04-15T05:40:10;11.21;73.77
65766;SHT31;52915;53.718;19.946;2023-04-15T05:45:14;11.24;73.87
65766;SHT31;52915;53.718;19.946;2023-04-15T05:50:18;11.27;73.76
65766;SHT31;52915;53.718;19.946;2023-04-15T05:55:23;11.29;73.71
65766;SHT31;52915;53.718;19.946;2023-04-15T06:00:27;11.26;73.71
65766;SHT31;52915;53.718;19.946;2023-04-15T06:05:31;11.22;73.76
65766;SHT31;52915;53.718;19.946;2023-04-15T06:10:34;11.24;73.84
65766;SHT31;52915;53.718;19.946;2023-04-15T06:28:48;11.39;73.17
65766;SHT31;52915;53.718;19.946;2023-04-15T07:00:12;11.45;72.30
65766;SHT31;52915;53.718;19.946;2023-04-15T07:05:17;11.52;72.12
65766;SHT31;52915;53.718;19.946;2023-04-15T07:25:20;11.56;71.55
65766;SHT31;52915;53.718;19.946;2023-04-15T07:30:29;11.51;71.75
65766;SHT31;52915;53.718;19.946;2023-04-15T07:35:33;11.49;71.87
65766;SHT31;52915;53.718;19.946;2023-04-15T07:54:52;11.53;71.92
65766;SHT31;52915;53.718;19.946;2023-04-15T08:16:49;11.62;71.84
65766;SHT31;52915;53.718;19.946;2023-04-15T08:21:53;11.61;71.77
65766;SHT31;52915;53.718;19.946;2023-04-15T08:26:59;11.64;71.68
65766;SHT31;52915;53.718;19.946;2023-04-15T08:32:04;11.70;71.91
65766;SHT31;52915;53.718;19.946;2023-04-15T08:37:08;11.81;71.58
65766;SHT31;52915;53.718;19.946;2023-04-15T08:42:18;11.88;71.29
65766;SHT31;52915;53.718;19.946;2023-04-15T08:47:49;11.93;70.94
65766;SHT31;52915;53.718;19.946;2023-04-15T08:52:58;11.92;70.97
65766;SHT31;52915;53.718;19.946;2023-04-15T08:58:03;11.90;70.91
65766;SHT31;52915;53.718;19.946;2023-04-15T09:03:08;11.88;71.01
65766;SHT31;52915;53.718;19.946;2023-04-15T09:15:00;11.97;71.04
65766;SHT31;52915;53.718;19.946;2023-04-15T09:20:09;11.96;71.32
65766;SHT31;52915;53.718;19.946;2023-04-15T09:32:13;11.91;71.67
65766;SHT31;52915;53.718;19.946;2023-04-15T09:37:21;11.96;71.46
65766;SHT31;52915;53.718;19.946;2023-04-15T09:42:54;11.85;71.82
65766;SHT31;52915;53.718;19.946;2023-04-15T10:14:48;11.78;72.65
65766;SHT31;52915;53.718;19.946;2023-04-15T10:20:11;11.77;72.68
65766;SHT31;52915;53.718;19.946;2023-04-15T10:32:09;11.64;73.02
65766;SHT31;52915;53.718;19.946;2023-04-15T10:37:37;11.63;73.04
65766;SHT31;52915;53.718;19.946;2023-04-15T10:42:42;11.66;73.12
65766;SHT31;52915;53.718;19.946;2023-04-15T11:00:20;11.71;73.21
65766;SHT31;52915;53.718;19.946;2023-04-15T11:18:54;11.68;73.64
65766;SHT31;52915;53.718;19.946;2023-04-15T11:35:29;11.67;73.98
65766;SHT31;52915;53.718;19.946;2023-04-15T11:40:33;11.63;73.93
65766;SHT31;52915;53.718;19.946;2023-04-15T11:45:46;11.76;73.92
65766;SHT31;52915;53.718;19.946;2023-04-15T11:51:08;11.88;73.57
65766;SHT31;52915;53.718;19.946;2023-04-15T12:09:12;11.74;74.79
65766;SHT31;52915;53.718;19.946;2023-04-15T12:34:49;11.70;76.05
65766;SHT31;52915;53.718;19.946;2023-04-15T12:39:56;11.67;76.27
65766;SHT31;52915;53.718;19.946;2023-04-15T12:52:07;11.66;76.27
65766;SHT31;52915;53.718;19.946;2023-04-15T13:03:35;11.50;76.50
65766;SHT31;52915;53.718;19.946;2023-04-15T13:14:35;11.53;76.50
65766;SHT31;52915;53.718;19.946;2023-04-15T13:19:38;11.54;76.50
65766;SHT31;52915;53.718;19.946;2023-04-15T13:24:42;11.49;76.54
65766;SHT31;52915;53.718;19.946;2023-04-15T13:29:46;11.56;76.46
65766;SHT31;52915;53.718;19.946;2023-04-15T13:49:10;12.19;75.57
65766;SHT31;52915;53.718;19.946;2023-04-15T13:54:14;12.34;75.32
65766;SHT31;52915;53.718;19.946;2023-04-15T14:13:16;11.72;76.39
65766;SHT31;52915;53.718;19.946;2023-04-15T14:18:21;11.63;76.45
65766;SHT31;52915;53.718;19.946;2023-04-15T14:23:25;11.54;76.64
65766;SHT31;52915;53.718;19.946;2023-04-15T14:47:36;11.52;77.06
65766;SHT31;52915;53.718;19.946;2023-04-15T14:58:25;11.35;77.39
65766;SHT31;52915;53.718;19.946;2023-04-15T15:10:43;11.36;77.25
65766;SHT31;52915;53.718;19.946;2023-04-15T15:15:51;11.38;77.35
65766;SHT31;52915;53.718;19.946;2023-04-15T15:44:54;11.15;77.50
65766;SHT31;52915;53.718;19.946;2023-04-15T15:57:02;10.95;78.14
65766;SHT31;52915;53.718;19.946;2023-04-15T16:32:42;10.68;78.46
65766;SHT31;52915;53.718;19.946;2023-04-15T16:49:33;10.40;78.75
65766;SHT31;52915;53.718;19.946;2023-04-15T16:54:37;10.37;78.75
65766;SHT31;52915;53.718;19.946;2023-04-15T16:59:43;10.31;78.80
65766;SHT31;52915;53.718;19.946;2023-04-15T17:04:46;10.32;78.80
65766;SHT31;52915;53.718;19.946;2023-04-15T17:09:50;10.15;78.97
65766;SHT31;52915;53.718;19.946;2023-04-15T17:14:56;10.10;79.22
65766;SHT31;52915;53.718;19.946;2023-04-15T17:20:00;10.08;79.22
65766;SHT31;52915;53.718;19.946;2023-04-15T17:45:18;9.85;79.94
65766;SHT31;52915;53.718;19.946;2023-04-15T18:11:22;9.46;80.71
65766;SHT31;52915;53.718;19.946;2023-04-15T18:16:26;9.39;80.44
65766;SHT31;52915;53.718;19.946;2023-04-15T18:21:30;9.34;80.31
65766;SHT31;52915;53.718;19.946;2023-04-15T18:26:34;9.24;80.25
65766;SHT31;52915;53.718;19.946;2023-04-15T18:31:38;9.14;80.43
65766;SHT31;52915;53.718;19.946;2023-04-15T18:36:41;9.05;80.19
65766;SHT31;52915;53.718;19.946;2023-04-15T18:41:49;8.95;80.29
65766;SHT31;52915;53.718;19.946;2023-04-15T18:46:52;8.97;80.19
65766;SHT31;52915;53.718;19.946;2023-04-15T18:51:56;8.98;80.04
65766;SHT31;52915;53.718;19.946;2023-04-15T19:02:54;8.85;79.99
65766;SHT31;52915;53.718;19.946;2023-04-15T19:07:59;8.84;80.20
65766;SHT31;52915;53.718;19.946;2023-04-15T19:13:03;8.71;80.46
65766;SHT31;52915;53.718;19.946;2023-04-15T19:18:08;8.70;80.54
65766;SHT31;52915;53.718;19.946;2023-04-15T19:23:13;8.66;80.68
65766;SHT31;52915;53.718;19.946;2023-04-15T19:28:17;8.67;80.78
65766;SHT31;52915;53.718;19.946;2023-04-15T19:33:21;8.68;80.83
65766;SHT31;52915;53.718;19.946;2023-04-15T19:38:24;8.66;80.89
65766;SHT31;52915;53.718;19.946;2023-04-15T19:48:48;8.73;80.88
65766;SHT31;52915;53.718;19.946;2023-04-15T19:59:38;8.76;80.89
65766;SHT31;52915;53.718;19.946;2023-04-15T20:16:04;8.73;81.00
65766;SHT31;52915;53.718;19.946;2023-04-15T20:21:09;8.77;81.11
65766;SHT31;52915;53.718;19.946;2023-04-15T20:26:14;8.81;81.07
65766;SHT31;52915;53.718;19.946;2023-04-15T20:31:20;8.76;81.21
65766;SHT31;52915;53.718;19.946;2023-04-15T20:42:00;8.91;81.15
65766;SHT31;52915;53.718;19.946;2023-04-15T20:47:05;8.89;81.07
65766;SHT31;52915;53.718;19.946;2023-04-15T20:52:16;8.90;80.88
65766;SHT31;52915;53.718;19.946;2023-04-15T21:03:41;8.97;80.69
65766;SHT31;52915;53.718;19.946;2023-04-15T21:08:45;8.96;80.57
65766;SHT31;52915;53.718;19.946;2023-04-15T21:13:49;8.87;80.64
65766;SHT31;52915;53.718;19.946;2023-04-15T21:33:37;8.78;80.93
65766;SHT31;52915;53.718;19.946;2023-04-15T21:38:40;8.77;81.02
65766;SHT31;52915;53.718;19.946;2023-04-15T21:49:28;8.80;80.82
65766;SHT31;52915;53.718;19.946;2023-04-15T22:01:40;8.63;81.19
65766;SHT31;52915;53.718;19.946;2023-04-15T22:27:37;8.59;81.44
65766;SHT31;52915;53.718;19.946;2023-04-15T22:32:41;8.55;81.50
65766;SHT31;52915;53.718;19.946;2023-04-15T22:37:51;8.57;81.50
65766;SHT31;52915;53.718;19.946;2023-04-15T22:42:55;8.63;81.29
65766;SHT31;52915;53.718;19.946;2023-04-15T22:47:58;8.63;81.21
65766;SHT31;52915;53.718;19.946;2023-04-15T22:53:02;8.59;81.31
65766;SHT31;52915;53.718;19.946;2023-04-15T22:58:06;8.66;81.26
65766;SHT31;52915;53.718;19.946;2023-04-15T23:03:09;8.70;81.11
65766;SHT31;52915;53.718;19.946;2023-04-15T23:08:32;8.69;81.17
65766;SHT31;52915;53.718;19.946;2023-04-15T23:13:36;8.61;81.26
65766;SHT31;52915;53.718;19.946;2023-04-15T23:18:40;8.60;81.38
65766;SHT31;52915;53.718;19.946;2023-04-15T23:23:44;8.59;81.42
65766;SHT31;52915;53.718;19.946;2023-04-15T23:34:16;8.51;81.63
65766;SHT31;52915;53.718;19.946;2023-04-15T23:39:19;8.49;81.61
65766;SHT31;52915;53.718;19.946;2023-04-15T23:44:23;8.39;81.73
65766;SHT31;52915;53.718;19.946;2023-04-15T23:49:27;8.43;81.69
65766;SHT31;52915;53.718;19.946;2023-04-15T23:54:30;8.42;81.64
65766;SHT31;52915;53.718;19.946;2023-04-15T23:59:34;8.39;81.64
